Time;durP1;ratioP1;P1;durP2;ratioP2;P2;SDS_P1;SDS_P2;PMS_P1;PMS_P2;Temp;Humidity;BMP_temperature;BMP_pressure;BME280_temperature;BME280_humidity;BME280_pressure;Samples;Min_cycle;Max_cycle;Signal;HPM_P1;HPM_P2
2020/12/17 00:01:21;;;;;;;33.85;21.90;;;;;;;4.81;74.88;101163.16;5043467;28;20443;-71
2020/12/17 00:03:46;;;;;;;32.97;21.50;;;;;;;4.80;74.51;101161.41;5043220;28;20603;-71
2020/12/17 00:06:12;;;;;;;32.78;20.75;;;;;;;4.79;74.75;101162.25;5022387;28;20721;-72
2020/12/17 00:08:37;;;;;;;34.40;21.60;;;;;;;4.84;74.72;101160.63;5039752;28;20116;-72
2020/12/17 00:11:03;;;;;;;32.33;21.35;;;;;;;4.86;74.74;101155.44;5020101;28;20033;-70
2020/12/17 00:13:28;;;;;;;33.08;21.08;;;;;;;4.81;74.40;101152.69;5039338;28;20033;-69
2020/12/17 00:15:54;;;;;;;32.47;20.25;;;;;;;4.71;74.22;101149.78;5039731;28;20067;-70
2020/12/17 00:18:19;;;;;;;28.42;18.80;;;;;;;4.47;74.58;101157.84;5043077;28;20047;-70
2020/12/17 00:20:44;;;;;;;31.98;20.38;;;;;;;4.23;75.16;101158.03;5043054;28;20028;-70
2020/12/17 00:23:09;;;;;;;27.88;17.45;;;;;;;4.06;75.25;101157.50;5040353;28;20380;-70
2020/12/17 00:25:35;;;;;;;35.03;21.95;;;;;;;3.99;75.61;101155.56;5039586;28;20554;-70
2020/12/17 00:28:00;;;;;;;28.50;17.85;;;;;;;3.89;75.89;101160.50;5040532;28;20551;-70
2020/12/17 00:30:25;;;;;;;25.20;17.58;;;;;;;3.80;75.75;101169.75;5042788;28;20060;-70
2020/12/17 00:32:51;;;;;;;28.65;19.60;;;;;;;3.69;76.28;101172.03;5042584;28;20079;-70
2020/12/17 00:35:16;;;;;;;29.70;18.17;;;;;;;3.61;76.23;101170.91;5040821;28;20025;-69
2020/12/17 00:37:42;;;;;;;33.78;20.65;;;;;;;3.43;76.92;101169.47;5040625;28;20425;-70
2020/12/17 00:40:10;;;;;;;30.60;19.70;;;;;;;3.34;76.93;101171.78;5041290;28;20044;-70
2020/12/17 00:42:40;;;;;;;33.03;19.55;;;;;;;3.20;77.08;101173.03;5042560;28;20051;-70
2020/12/17 00:45:05;;;;;;;27.48;17.92;;;;;;;3.10;77.25;101173.56;5040954;28;20033;-70
2020/12/17 00:47:31;;;;;;;31.77;19.05;;;;;;;2.84;78.28;101171.81;5039388;28;20121;-70
2020/12/17 00:49:56;;;;;;;31.70;19.70;;;;;;;2.62;79.26;101170.16;5039832;28;20068;-70
2020/12/17 00:52:22;;;;;;;32.55;20.45;;;;;;;2.52;79.67;101168.03;5042428;28;20036;-71
2020/12/17 00:54:48;;;;;;;34.95;22.05;;;;;;;2.50;79.71;101163.59;5042280;28;20094;-70
2020/12/17 00:57:13;;;;;;;38.35;22.58;;;;;;;2.54;79.32;101160.25;5050487;28;20083;-70
2020/12/17 00:59:39;;;;;;;37.35;22.38;;;;;;;2.60;79.31;101161.38;5058401;28;20052;-70
2020/12/17 01:02:04;;;;;;;35.55;21.08;;;;;;;2.68;79.08;101163.41;5068842;28;20074;-70
2020/12/17 01:04:29;;;;;;;37.65;22.38;;;;;;;2.73;78.62;101154.91;5042521;28;20135;-70
2020/12/17 01:06:55;;;;;;;33.47;20.25;;;;;;;2.77;78.78;101158.50;5050954;28;20068;-70
2020/12/17 01:09:20;;;;;;;37.13;22.05;;;;;;;2.78;78.78;101155.94;5066808;28;20040;-70
2020/12/17 01:11:45;;;;;;;39.95;23.73;;;;;;;2.78;78.45;101150.75;5042516;28;20036;-70
2020/12/17 01:14:10;;;;;;;36.45;21.52;;;;;;;2.77;78.82;101154.16;5039709;28;20400;-70
2020/12/17 01:16:36;;;;;;;32.10;20.30;;;;;;;2.74;78.35;101147.97;5039045;28;20431;-70
2020/12/17 01:19:01;;;;;;;42.55;25.70;;;;;;;2.74;78.45;101155.78;5041690;28;20040;-70
2020/12/17 01:21:26;;;;;;;34.67;20.65;;;;;;;2.72;78.51;101154.84;5046213;28;20037;-70
2020/12/17 01:23:52;;;;;;;36.08;21.83;;;;;;;2.70;78.59;101146.06;5046023;28;20068;-69
2020/12/17 01:26:17;;;;;;;37.75;22.65;;;;;;;2.68;78.84;101142.53;5042822;28;20041;-70
2020/12/17 01:28:42;;;;;;;35.13;21.75;;;;;;;2.58;78.25;101147.41;5042742;28;20041;-70
2020/12/17 01:31:12;;;;;;;33.30;21.15;;;;;;;2.54;78.58;101150.75;5044650;28;20037;-70
2020/12/17 01:33:39;;;;;;;39.97;24.27;;;;;;;2.52;79.08;101146.31;5045763;28;20086;-70
2020/12/17 01:36:06;;;;;;;34.25;22.80;;;;;;;2.50;78.33;101143.66;5044449;28;20029;-69
2020/12/17 01:38:32;;;;;;;36.15;22.17;;;;;;;2.45;78.78;101145.19;5042393;28;20090;-69
2020/12/17 01:40:57;;;;;;;35.97;22.42;;;;;;;2.42;78.32;101145.97;5043112;28;20042;-70
2020/12/17 01:43:23;;;;;;;34.15;20.73;;;;;;;2.42;78.80;101150.31;5045567;28;20514;-70
2020/12/17 01:45:49;;;;;;;33.92;21.23;;;;;;;2.42;78.82;101151.19;5045815;28;20531;-69
2020/12/17 01:48:16;;;;;;;34.58;20.83;;;;;;;2.41;79.06;101139.00;5042833;28;20083;-71
2020/12/17 01:50:46;;;;;;;36.78;21.63;;;;;;;2.42;78.97;101135.56;5042314;28;20037;-70
2020/12/17 01:53:13;;;;;;;36.75;22.23;;;;;;;2.42;78.55;101134.66;5044628;28;20449;-70
2020/12/17 01:55:39;;;;;;;34.22;21.35;;;;;;;2.41;78.62;101139.00;5045606;28;20075;-70
2020/12/17 01:58:06;;;;;;;35.53;21.95;;;;;;;2.44;79.04;101143.44;5044042;28;20079;-70
2020/12/17 02:00:36;;;;;;;34.67;21.38;;;;;;;2.46;79.16;101152.16;5041858;28;20044;-69
2020/12/17 02:03:03;;;;;;;35.08;21.85;;;;;;;2.48;79.09;101154.84;5043038;28;20033;-69
2020/12/17 02:05:28;;;;;;;40.13;24.90;;;;;;;2.48;78.83;101150.50;5045583;28;20033;-70
2020/12/17 02:07:57;;;;;;;36.05;22.50;;;;;;;2.47;78.94;101153.09;5045246;28;20044;-70
2020/12/17 02:10:22;;;;;;;31.73;20.70;;;;;;;2.39;78.90;101148.47;5041892;28;20029;-70
2020/12/17 02:12:49;;;;;;;37.35;23.77;;;;;;;2.35;79.13;101150.91;5041696;28;20487;-70
2020/12/17 02:15:15;;;;;;;41.08;24.42;;;;;;;2.37;79.01;101141.44;5044665;28;20040;-70
2020/12/17 02:17:41;;;;;;;37.47;22.85;;;;;;;2.36;78.71;101147.47;5045239;28;20479;-70
2020/12/17 02:20:08;;;;;;;35.53;21.48;;;;;;;2.38;78.96;101145.78;5043306;28;20033;-70
2020/12/17 02:22:34;;;;;;;35.95;23.15;;;;;;;2.38;78.90;101151.00;5041408;28;20423;-70
2020/12/17 02:25:01;;;;;;;42.15;23.80;;;;;;;2.39;78.95;101151.06;5042664;28;20029;-70
2020/12/17 02:27:26;;;;;;;37.20;22.98;;;;;;;2.41;78.97;101156.31;5045059;28;20116;-70
2020/12/17 02:29:52;;;;;;;31.88;19.42;;;;;;;2.45;78.86;101154.72;5044601;28;20112;-70
2020/12/17 02:32:17;;;;;;;35.38;21.27;;;;;;;2.50;79.04;101153.19;5041312;28;20099;-70
2020/12/17 02:34:42;;;;;;;35.28;22.23;;;;;;;2.54;78.80;101153.38;5041455;28;20076;-70
2020/12/17 02:37:09;;;;;;;36.58;21.92;;;;;;;2.59;78.86;101144.00;5043851;28;20398;-70
2020/12/17 02:39:35;;;;;;;37.08;21.67;;;;;;;2.70;78.71;101146.06;5041940;28;20030;-69
2020/12/17 02:42:01;;;;;;;38.30;22.55;;;;;;;2.66;78.44;101139.88;5042244;28;20515;-70
2020/12/17 02:44:26;;;;;;;37.05;23.65;;;;;;;2.67;78.44;101143.34;5044594;28;20515;-70
2020/12/17 02:46:51;;;;;;;37.95;24.08;;;;;;;2.71;78.33;101143.53;5044832;28;20605;-69
2020/12/17 02:49:17;;;;;;;40.80;23.92;;;;;;;2.66;78.22;101139.00;5041352;28;20395;-69
2020/12/17 02:51:42;;;;;;;34.55;20.83;;;;;;;2.55;78.34;101136.00;5041097;28;20551;-70
2020/12/17 02:54:07;;;;;;;41.92;26.63;;;;;;;2.56;78.57;101138.66;5042819;28;20505;-70
2020/12/17 02:56:32;;;;;;;40.47;24.58;;;;;;;2.54;78.43;101131.59;5044525;28;20064;-70
2020/12/17 02:58:58;;;;;;;37.60;23.40;;;;;;;2.48;78.52;101134.00;5043688;28;20079;-70
2020/12/17 03:01:23;;;;;;;40.55;24.42;;;;;;;2.42;78.63;101138.16;5040832;28;20076;-70
2020/12/17 03:03:48;;;;;;;42.75;25.75;;;;;;;2.40;78.43;101132.00;5040601;28;20075;-70
2020/12/17 03:06:14;;;;;;;41.33;25.00;;;;;;;2.36;78.54;101130.13;5043679;28;20068;-71
2020/12/17 03:08:39;;;;;;;40.33;23.88;;;;;;;2.36;78.61;101132.72;5044190;28;20068;-70
2020/12/17 03:11:04;;;;;;;37.53;24.60;;;;;;;2.38;78.61;101122.34;5042520;28;20040;-70
2020/12/17 03:13:30;;;;;;;39.92;23.45;;;;;;;2.37;78.33;101125.78;5040340;28;20037;-70
2020/12/17 03:15:55;;;;;;;38.80;24.60;;;;;;;2.37;78.79;101136.22;5041002;28;20044;-71
2020/12/17 03:18:20;;;;;;;43.28;25.08;;;;;;;2.41;78.66;101132.88;5044029;28;20037;-70
2020/12/17 03:20:46;;;;;;;38.53;23.42;;;;;;;2.42;78.26;101132.06;5043991;28;20033;-70
2020/12/17 03:23:12;;;;;;;36.45;22.25;;;;;;;2.41;78.13;101128.56;5041011;28;20032;-70
2020/12/17 03:25:37;;;;;;;37.42;22.35;;;;;;;2.40;78.24;101118.97;5040446;28;20052;-70
2020/12/17 03:28:02;;;;;;;37.97;23.75;;;;;;;2.41;78.52;101123.38;5041641;28;20116;-70
2020/12/17 03:30:28;;;;;;;38.20;24.25;;;;;;;2.41;78.07;101117.25;5043798;28;20025;-69
2020/12/17 03:32:53;;;;;;;38.67;24.08;;;;;;;2.40;78.33;101112.88;5043501;28;20123;-70
2020/12/17 03:35:18;;;;;;;35.72;22.35;;;;;;;2.39;78.29;101108.50;5040174;28;20073;-69
2020/12/17 03:37:44;;;;;;;34.80;22.52;;;;;;;2.33;78.10;101117.00;5040248;28;20033;-70
2020/12/17 03:40:09;;;;;;;39.65;24.63;;;;;;;2.33;78.41;101114.38;5042403;28;20037;-70
2020/12/17 03:42:34;;;;;;;36.67;23.05;;;;;;;2.31;78.39;101120.38;5042395;28;20040;-70
2020/12/17 03:45:00;;;;;;;39.78;23.50;;;;;;;2.25;78.42;101120.13;5042636;28;20037;-70
2020/12/17 03:47:25;;;;;;;37.15;22.75;;;;;;;2.21;78.40;101123.47;5040095;28;20037;-70
2020/12/17 03:49:50;;;;;;;37.03;23.38;;;;;;;2.10;78.56;101120.47;5039954;28;20124;-70
2020/12/17 03:52:16;;;;;;;36.88;22.67;;;;;;;2.06;79.12;101116.84;5042817;28;20057;-70
2020/12/17 03:54:41;;;;;;;36.65;23.83;;;;;;;2.08;78.65;101119.50;5043277;28;20083;-70
2020/12/17 03:57:06;;;;;;;34.55;23.30;;;;;;;2.06;78.73;101109.03;5041437;28;20032;-70
2020/12/17 03:59:32;;;;;;;36.92;23.55;;;;;;;2.06;78.64;101113.34;5039675;28;20522;-69
2020/12/17 04:01:57;;;;;;;40.45;23.15;;;;;;;2.10;79.28;101120.47;5040450;28;20487;-70
2020/12/17 04:04:22;;;;;;;38.30;23.02;;;;;;;2.17;79.57;101123.34;5042912;28;20046;-70
2020/12/17 04:06:48;;;;;;;40.25;23.80;;;;;;;2.29;79.05;101135.06;5043209;28;20037;-70
2020/12/17 04:09:13;;;;;;;38.38;23.67;;;;;;;2.36;78.80;101134.47;5046296;28;20037;-70
2020/12/17 04:11:39;;;;;;;38.25;23.73;;;;;;;2.38;79.22;101131.06;5044654;28;20479;-70
2020/12/17 04:14:04;;;;;;;42.45;25.25;;;;;;;2.41;79.18;101125.06;5040785;28;20030;-70
2020/12/17 04:16:30;;;;;;;39.58;24.20;;;;;;;2.47;79.17;101133.13;5043077;28;20095;-71
2020/12/17 04:18:55;;;;;;;44.42;27.08;;;;;;;2.51;78.95;101132.38;5042591;28;20086;-71
2020/12/17 04:21:20;;;;;;;38.08;23.55;;;;;;;2.51;78.99;101137.59;5039566;28;20048;-71
2020/12/17 04:23:45;;;;;;;37.53;23.02;;;;;;;2.42;78.24;101134.66;5039301;28;20128;-70
2020/12/17 04:26:14;;;;;;;37.70;21.27;;;;;;;2.31;77.74;101126.47;5041792;28;20035;-70
2020/12/17 04:28:40;;;;;;;35.63;21.52;;;;;;;2.26;77.84;101127.13;5042626;28;20550;-70
2020/12/17 04:31:06;;;;;;;35.80;22.08;;;;;;;2.25;78.38;101127.94;5041155;28;20112;-70
2020/12/17 04:33:31;;;;;;;37.58;22.48;;;;;;;2.23;78.13;101124.38;5039251;28;20026;-70
2020/12/17 04:35:56;;;;;;;43.42;26.48;;;;;;;2.19;77.96;101126.88;5039681;28;20500;-70
2020/12/17 04:38:22;;;;;;;40.45;24.23;;;;;;;2.17;78.66;101127.66;5042763;28;20484;-69
2020/12/17 04:40:47;;;;;;;37.40;23.45;;;;;;;2.17;78.30;101125.97;5042760;28;20041;-69
2020/12/17 04:43:13;;;;;;;42.13;25.63;;;;;;;2.12;77.85;101127.50;5039761;28;20063;-70
2020/12/17 04:45:39;;;;;;;33.95;20.60;;;;;;;2.09;78.34;101135.19;5040184;28;20037;-69
2020/12/17 04:48:08;;;;;;;33.30;20.27;;;;;;;2.07;78.44;101129.03;5030975;28;20061;-70
2020/12/17 04:50:34;;;;;;;34.40;19.52;;;;;;;2.06;78.31;101136.78;5041750;28;20476;-70
2020/12/17 04:53:04;;;;;;;38.78;22.63;;;;;;;2.06;78.79;101124.66;5044363;28;20048;-70
2020/12/17 04:55:31;;;;;;;36.67;23.08;;;;;;;2.15;78.04;101119.81;5046567;28;20041;-70
2020/12/17 04:57:58;;;;;;;34.42;21.35;;;;;;;2.21;78.34;101113.94;5046209;28;20091;-70
2020/12/17 05:00:24;;;;;;;38.90;22.10;;;;;;;2.25;78.06;101118.41;5043113;28;20029;-70
2020/12/17 05:02:54;;;;;;;37.72;22.10;;;;;;;2.27;78.04;101113.25;5042896;28;20044;-70
2020/12/17 05:05:20;;;;;;;37.25;21.15;;;;;;;2.26;78.39;101111.50;5043139;28;20128;-69
2020/12/17 05:07:45;;;;;;;36.33;20.60;;;;;;;2.25;78.15;101114.91;5042987;28;20069;-70
2020/12/17 05:10:10;;;;;;;40.15;23.45;;;;;;;2.23;78.26;101111.38;5040706;28;20034;-70
2020/12/17 05:12:36;;;;;;;35.65;21.33;;;;;;;2.21;78.07;101113.94;5042735;28;20044;-70
2020/12/17 05:15:01;;;;;;;36.78;21.17;;;;;;;2.18;78.63;101113.81;5043834;28;20045;-69
2020/12/17 05:17:26;;;;;;;34.25;21.30;;;;;;;2.12;78.13;101108.38;5046281;28;20124;-70
2020/12/17 05:19:52;;;;;;;36.35;21.20;;;;;;;2.08;78.06;101111.69;5046358;28;20525;-70
2020/12/17 05:22:17;;;;;;;36.25;21.35;;;;;;;2.05;77.97;101109.88;5042599;28;20034;-69
2020/12/17 05:24:44;;;;;;;34.58;20.40;;;;;;;2.04;78.13;101113.28;5042877;28;20064;-68
2020/12/17 05:27:10;;;;;;;36.65;21.38;;;;;;;2.00;77.48;101119.22;5044826;28;20110;-68
2020/12/17 05:29:38;;;;;;;36.58;21.58;;;;;;;1.96;77.93;101123.44;5046126;28;20075;-68
2020/12/17 05:32:04;;;;;;;34.00;20.55;;;;;;;1.87;78.13;101130.00;5044340;28;20119;-68
2020/12/17 05:34:29;;;;;;;36.75;21.77;;;;;;;1.86;78.48;101141.22;5042712;28;20534;-68
2020/12/17 05:36:54;;;;;;;33.70;20.92;;;;;;;1.88;78.33;101132.63;5042930;28;20037;-68
2020/12/17 05:39:22;;;;;;;36.83;21.25;;;;;;;1.92;78.33;101133.66;5045882;28;20032;-67
2020/12/17 05:41:49;;;;;;;35.50;21.40;;;;;;;1.97;78.20;101124.31;5043597;28;20091;-67
2020/12/17 05:44:17;;;;;;;35.92;21.80;;;;;;;2.01;78.59;101131.41;5050195;28;20061;-68
2020/12/17 05:46:45;;;;;;;39.63;22.17;;;;;;;2.02;78.75;101141.00;5042347;28;20112;-68
2020/12/17 05:49:29;;;;;;;41.85;22.38;;;;;;;2.02;78.74;101143.59;5044566;28;20033;-68
2020/12/17 05:52:09;;;;;;;35.67;20.38;;;;;;;2.06;78.55;101136.78;5045487;28;20107;-67
2020/12/17 05:54:35;;;;;;;36.88;20.75;;;;;;;2.07;78.47;101146.34;5042098;28;20120;-68
2020/12/17 05:57:07;;;;;;;32.97;20.08;;;;;;;2.06;78.35;101148.09;5043039;28;20163;-67
2020/12/17 05:59:33;;;;;;;;;;;;;;;1.99;78.82;101143.47;5047699;28;20043;-68
2020/12/17 06:02:17;;;;;;;32.25;19.77;;;;;;;2.01;78.31;101141.81;5043406;28;19917;-69
2020/12/17 06:04:43;;;;;;;36.53;21.10;;;;;;;2.01;77.94;101157.44;5041252;28;20072;-68
2020/12/17 06:07:13;;;;;;;40.63;23.73;;;;;;;1.98;78.01;101147.78;5048029;28;20499;-68
2020/12/17 06:09:46;;;;;;;40.72;22.20;;;;;;;1.94;78.11;101158.06;5041671;28;20037;-68
2020/12/17 06:12:18;;;;;;;37.40;20.90;;;;;;;1.86;78.60;101154.22;5044004;28;20499;-68
2020/12/17 06:14:46;;;;;;;36.70;23.05;;;;;;;1.85;78.37;101149.88;5045248;28;20126;-67
2020/12/17 06:17:14;;;;;;;38.45;21.92;;;;;;;1.85;78.91;101144.66;5042653;28;20041;-68
2020/12/17 06:19:41;;;;;;;36.03;21.73;;;;;;;1.80;78.44;101148.78;5041794;28;20452;-68
2020/12/17 06:22:09;;;;;;;36.97;20.77;;;;;;;1.81;78.59;101147.97;5043169;28;20057;-68
2020/12/17 06:24:35;;;;;;;42.57;23.17;;;;;;;1.84;79.51;101148.09;5045091;28;20472;-68
2020/12/17 06:27:02;;;;;;;36.10;21.03;;;;;;;1.86;78.45;101149.03;5044038;28;20048;-68
2020/12/17 06:29:35;;;;;;;38.17;21.37;;;;;;;1.82;78.89;101144.53;5041579;28;20037;-68
2020/12/17 06:32:07;;;;;;;38.70;21.43;;;;;;;1.77;79.01;101161.69;5042259;28;20099;-68
2020/12/17 06:34:38;;;;;;;34.83;20.07;;;;;;;1.75;78.80;101156.41;5044873;28;20033;-68
2020/12/17 06:37:03;;;;;;;38.13;20.65;;;;;;;1.76;79.00;101147.81;5043565;28;20691;-68
2020/12/17 06:39:29;;;;;;;34.85;20.88;;;;;;;1.76;79.40;101145.19;5041365;28;20029;-68
2020/12/17 06:41:54;;;;;;;37.70;20.48;;;;;;;1.82;79.58;101149.75;5041303;28;20042;-68
2020/12/17 06:44:25;;;;;;;35.50;22.13;;;;;;;1.87;79.67;101156.03;5044489;28;20410;-68
2020/12/17 06:46:55;;;;;;;34.90;19.73;;;;;;;1.92;79.76;101162.31;5044728;28;20422;-68
2020/12/17 06:49:29;;;;;;;36.33;21.08;;;;;;;1.94;78.88;101160.66;5046682;28;20032;-68
2020/12/17 06:52:03;;;;;;;34.08;20.90;;;;;;;1.93;79.06;101153.66;5031500;28;20035;-68
2020/12/17 06:54:31;;;;;;;34.25;20.63;;;;;;;1.93;79.35;101145.84;5047746;28;20496;-68
2020/12/17 06:57:05;;;;;;;35.58;20.35;;;;;;;1.95;78.85;101146.78;5041576;28;20051;-68
2020/12/17 06:59:31;;;;;;;36.60;21.23;;;;;;;1.97;79.29;101152.94;5052484;28;20037;-69
2020/12/17 07:01:57;;;;;;;35.80;20.52;;;;;;;2.02;79.15;101155.72;5043851;28;20067;-68
2020/12/17 07:04:36;;;;;;;34.70;20.00;;;;;;;2.05;79.02;101161.06;5040789;28;20433;-68
2020/12/17 07:07:17;;;;;;;37.47;21.60;;;;;;;2.08;78.82;101169.00;5041962;28;20030;-67
2020/12/17 07:09:45;;;;;;;32.58;18.70;;;;;;;2.06;78.71;101168.91;5044463;28;20407;-68
2020/12/17 07:12:12;;;;;;;31.07;19.30;;;;;;;2.04;78.37;101180.09;5041521;28;20082;-67
2020/12/17 07:14:39;;;;;;;33.17;18.60;;;;;;;2.03;78.90;101176.59;5040610;28;20038;-68
2020/12/17 07:17:06;;;;;;;36.10;20.50;;;;;;;2.07;78.27;101185.41;5041939;28;20037;-68
2020/12/17 07:19:58;;;;;;;33.23;19.43;;;;;;;2.05;78.36;101180.16;5044034;28;20041;-68
2020/12/17 07:22:23;;;;;;;36.63;21.37;;;;;;;2.11;78.09;101172.59;5037193;28;20076;-68
2020/12/17 07:24:51;;;;;;;36.17;21.30;;;;;;;2.16;78.17;101176.25;5040457;28;20072;-68
2020/12/17 07:27:23;;;;;;;36.42;21.67;;;;;;;2.21;78.47;101181.63;5043480;28;20028;-68
2020/12/17 07:29:59;;;;;;;33.25;19.85;;;;;;;2.29;77.96;101176.72;5044041;28;20068;-68
2020/12/17 07:32:25;;;;;;;37.45;20.80;;;;;;;2.34;77.64;101177.78;5040624;28;20479;-68
2020/12/17 07:34:52;;;;;;;37.88;22.27;;;;;;;2.36;77.45;101176.13;5040521;28;20041;-68
2020/12/17 07:37:46;;;;;;;54.67;26.40;;;;;;;2.41;77.65;101182.38;5043392;28;20527;-68
2020/12/17 07:40:27;;;;;;;58.47;30.65;;;;;;;2.55;78.34;101175.09;5027160;28;20045;-68
2020/12/17 07:43:03;;;;;;;45.80;25.38;;;;;;;2.67;78.34;101178.13;5026509;28;20040;-68
2020/12/17 07:45:43;;;;;;;34.85;21.15;;;;;;;2.82;77.28;101164.75;5045017;28;20123;-68
2020/12/17 07:48:32;;;;;;;32.67;19.98;;;;;;;2.95;77.13;101179.13;5049868;28;20491;-68
2020/12/17 07:50:57;;;;;;;31.17;18.65;;;;;;;3.04;76.36;101175.13;5041493;28;20514;-68
2020/12/17 07:53:24;;;;;;;35.47;21.27;;;;;;;3.13;76.65;101173.66;5013004;28;20136;-69
2020/12/17 07:55:53;;;;;;;34.45;19.92;;;;;;;3.28;76.33;101177.66;5037770;28;20044;-70
2020/12/17 07:58:19;;;;;;;38.85;21.35;;;;;;;3.37;76.12;101173.59;5038317;28;20029;-70
2020/12/17 08:00:44;;;;;;;32.83;20.73;;;;;;;3.53;76.47;101175.88;5015758;28;20514;-69
2020/12/17 08:03:10;;;;;;;34.88;21.05;;;;;;;3.70;75.89;101168.59;5038478;28;20045;-69
2020/12/17 08:05:35;;;;;;;32.90;21.10;;;;;;;3.85;75.13;101171.69;5039850;28;20048;-70
2020/12/17 08:08:01;;;;;;;34.78;20.70;;;;;;;4.03;74.65;101175.69;5041901;28;20116;-70
2020/12/17 08:10:26;;;;;;;35.10;22.05;;;;;;;4.20;74.78;101176.22;5040732;28;20555;-70
2020/12/17 08:12:52;;;;;;;36.33;20.75;;;;;;;4.35;74.44;101179.31;5043198;28;20627;-70
2020/12/17 08:15:20;;;;;;;32.13;19.50;;;;;;;4.49;74.01;101174.47;5040768;28;20116;-70
2020/12/17 08:17:48;;;;;;;38.75;22.27;;;;;;;4.57;73.55;101178.19;5045250;28;20049;-70
2020/12/17 08:20:16;;;;;;;33.92;20.98;;;;;;;4.65;73.58;101173.16;5032552;28;20041;-69
2020/12/17 08:22:47;;;;;;;41.08;22.38;;;;;;;4.76;73.03;101170.00;5042666;28;20032;-70
2020/12/17 08:25:12;;;;;;;35.55;22.20;;;;;;;4.82;72.15;101178.03;5040349;28;20419;-69
2020/12/17 08:27:37;;;;;;;35.28;22.83;;;;;;;4.92;72.76;101180.88;5039020;28;20043;-70
2020/12/17 08:30:03;;;;;;;38.30;22.35;;;;;;;5.05;72.68;101173.41;5040576;28;20116;-70
2020/12/17 08:32:30;;;;;;;34.47;20.83;;;;;;;5.19;72.04;101179.00;5042538;28;20499;-70
2020/12/17 08:34:57;;;;;;;36.05;23.13;;;;;;;5.26;71.86;101173.06;5042555;28;20045;-70
2020/12/17 08:37:23;;;;;;;32.42;20.95;;;;;;;5.35;71.75;101172.44;5039374;28;20037;-70
2020/12/17 08:40:01;;;;;;;34.65;21.80;;;;;;;5.42;71.07;101179.59;5039189;28;20411;-70
2020/12/17 08:42:34;;;;;;;40.47;23.98;;;;;;;5.37;71.22;101182.94;5039081;28;20091;-70
2020/12/17 08:45:08;;;;;;;34.88;22.85;;;;;;;5.46;71.49;101184.06;5040073;28;20537;-70
2020/12/17 08:47:38;;;;;;;36.60;23.20;;;;;;;5.59;71.13;101176.53;5042637;28;20083;-70
2020/12/17 08:50:06;;;;;;;37.95;22.48;;;;;;;5.69;70.96;101182.00;5041256;28;20037;-70
2020/12/17 08:52:32;;;;;;;31.45;21.70;;;;;;;5.77;70.96;101181.31;5038877;28;20128;-70
2020/12/17 08:55:02;;;;;;;37.80;22.98;;;;;;;5.84;70.73;101177.97;5039660;28;20045;-70
2020/12/17 08:57:27;;;;;;;33.38;20.25;;;;;;;5.94;70.68;101187.84;5042503;28;20037;-70
2020/12/17 08:59:53;;;;;;;35.13;22.60;;;;;;;6.03;70.20;101180.22;5043768;28;20128;-70
2020/12/17 09:02:29;;;;;;;34.35;22.63;;;;;;;6.10;69.74;101182.13;5042246;28;20044;-70
2020/12/17 09:05:00;;;;;;;36.47;23.17;;;;;;;6.15;69.35;101175.22;5042058;28;20036;-70
2020/12/17 09:07:34;;;;;;;37.40;24.43;;;;;;;6.22;69.37;101180.63;5045534;28;20115;-70
2020/12/17 09:10:10;;;;;;;37.00;22.63;;;;;;;6.26;69.19;101174.56;5041048;28;20767;-70
2020/12/17 09:12:35;;;;;;;36.80;23.52;;;;;;;6.35;69.13;101180.03;5040429;28;20116;-70
2020/12/17 09:15:09;;;;;;;38.42;23.30;;;;;;;6.39;68.88;101168.75;5039658;28;20550;-70
2020/12/17 09:17:35;;;;;;;39.83;24.92;;;;;;;6.45;68.65;101163.66;5037453;28;20037;-70
2020/12/17 09:20:01;;;;;;;41.70;23.85;;;;;;;6.47;68.78;101175.06;5038063;28;20034;-70
2020/12/17 09:22:33;;;;;;;35.78;23.42;;;;;;;6.49;68.63;101175.94;5037115;28;20484;-70
2020/12/17 09:24:59;;;;;;;35.92;21.58;;;;;;;6.53;68.41;101169.94;5042150;28;20115;-70
2020/12/17 09:27:28;;;;;;;37.05;22.85;;;;;;;6.59;68.77;101169.16;5047297;28;20071;-70
2020/12/17 09:30:13;;;;;;;34.88;21.45;;;;;;;6.62;67.57;101165.72;5042528;28;20044;-70
2020/12/17 09:32:53;;;;;;;33.38;21.73;;;;;;;6.75;67.78;101168.63;5038513;28;20049;-70
2020/12/17 09:35:20;;;;;;;36.80;23.75;;;;;;;6.85;67.42;101164.44;5042126;28;20036;-70
2020/12/17 09:38:06;;;;;;;36.53;23.30;;;;;;;6.88;67.17;101168.84;5024449;28;20134;-70
2020/12/17 09:40:33;;;;;;;34.78;21.13;;;;;;;6.92;66.96;101168.94;5040992;28;20462;-70
2020/12/17 09:43:12;;;;;;;34.13;21.85;;;;;;;6.96;66.94;101177.75;5042574;28;20128;-70
2020/12/17 09:45:39;;;;;;;31.17;20.40;;;;;;;7.00;66.99;101180.47;5045913;28;20027;-70
2020/12/17 09:48:25;;;;;;;35.15;22.58;;;;;;;6.97;65.53;101175.19;5044382;28;20094;-70
2020/12/17 09:51:03;;;;;;;35.30;22.17;;;;;;;7.00;66.08;101169.97;5042410;28;20083;-70
2020/12/17 09:53:33;;;;;;;33.70;21.52;;;;;;;7.05;66.43;101171.78;5041947;28;20056;-70
2020/12/17 09:55:58;;;;;;;36.40;23.50;;;;;;;7.03;66.08;101169.16;5042571;28;20051;-70
2020/12/17 09:58:24;;;;;;;72.35;46.13;;;;;;;7.05;66.34;101167.44;5045488;28;20032;-70
2020/12/17 10:00:50;;;;;;;47.85;31.55;;;;;;;7.05;66.32;101171.78;5044578;28;20087;-70
2020/12/17 10:03:15;;;;;;;46.63;29.45;;;;;;;7.08;66.54;101175.38;5040240;28;20095;-70
2020/12/17 10:05:41;;;;;;;38.13;24.70;;;;;;;7.13;66.73;101178.97;5040255;28;20033;-70
2020/12/17 10:08:07;;;;;;;35.40;23.42;;;;;;;7.15;66.12;101189.47;5037076;28;20034;-70
2020/12/17 10:10:34;;;;;;;34.35;22.60;;;;;;;7.10;65.58;101178.00;5039994;28;20076;-70
2020/12/17 10:13:00;;;;;;;33.08;21.45;;;;;;;7.05;66.53;101180.56;5040450;28;20084;-70
2020/12/17 10:15:27;;;;;;;37.72;23.77;;;;;;;7.10;65.98;101183.25;5043124;28;20052;-70
2020/12/17 10:17:53;;;;;;;38.13;23.70;;;;;;;7.11;65.27;101179.78;5045254;28;20080;-70
2020/12/17 10:20:19;;;;;;;36.50;23.13;;;;;;;6.98;64.65;101176.06;5041841;28;20563;-70
2020/12/17 10:22:45;;;;;;;39.17;22.88;;;;;;;7.11;65.48;101180.66;5038362;28;20029;-71
2020/12/17 10:25:11;;;;;;;35.40;22.23;;;;;;;7.18;65.42;101184.31;5047305;28;20029;-70
2020/12/17 10:27:36;;;;;;;37.70;24.30;;;;;;;7.18;65.09;101171.19;5047836;28;20519;-70
2020/12/17 10:30:03;;;;;;;35.58;22.33;;;;;;;7.17;64.22;101182.53;5046845;28;20037;-70
2020/12/17 10:32:31;;;;;;;36.90;23.50;;;;;;;7.14;65.23;101172.84;5048356;28;20051;-70
2020/12/17 10:34:57;;;;;;;36.17;23.20;;;;;;;7.14;65.22;101172.84;5044952;28;20515;-70
2020/12/17 10:37:22;;;;;;;35.78;23.67;;;;;;;7.09;64.70;101173.63;5044889;28;20043;-70
2020/12/17 10:39:47;;;;;;;36.67;22.63;;;;;;;7.10;64.18;101180.63;5044793;28;20492;-70
2020/12/17 10:42:13;;;;;;;36.50;23.23;;;;;;;7.10;64.32;101180.63;5041836;28;20041;-71
2020/12/17 10:44:38;;;;;;;37.65;24.20;;;;;;;7.05;64.79;101182.28;5041201;28;20064;-70
2020/12/17 10:47:04;;;;;;;35.92;23.88;;;;;;;7.03;64.42;101187.53;5042454;28;20053;-70
2020/12/17 10:49:30;;;;;;;36.97;21.80;;;;;;;7.11;64.68;101190.28;5044756;28;20245;-70
2020/12/17 10:51:55;;;;;;;37.85;24.13;;;;;;;7.10;64.78;101183.25;5044037;28;20476;-70
2020/12/17 10:54:20;;;;;;;36.13;22.88;;;;;;;7.17;64.49;101179.91;5040689;28;20034;-70
2020/12/17 10:56:46;;;;;;;36.83;22.75;;;;;;;7.17;63.57;101179.91;5041271;28;20044;-70
2020/12/17 10:59:11;;;;;;;31.73;21.13;;;;;;;7.36;64.09;101173.22;5043256;28;20511;-70
2020/12/17 11:01:37;;;;;;;37.15;22.48;;;;;;;7.43;63.38;101175.97;5044159;28;20075;-69
2020/12/17 11:04:02;;;;;;;36.60;23.80;;;;;;;7.58;63.21;101170.09;5052092;28;20041;-70
2020/12/17 11:06:28;;;;;;;32.85;22.42;;;;;;;7.67;63.16;101169.34;5044752;28;20446;-71
2020/12/17 11:08:53;;;;;;;33.85;21.88;;;;;;;7.66;63.71;101162.34;5041386;28;20369;-71
2020/12/17 11:11:18;;;;;;;32.35;21.35;;;;;;;7.75;63.58;101146.72;5043979;28;20598;-70
2020/12/17 11:13:44;;;;;;;36.58;23.08;;;;;;;7.87;62.66;101146.91;5043911;28;20120;-70
2020/12/17 11:16:10;;;;;;;30.38;19.83;;;;;;;7.98;62.63;101143.56;5040906;28;20037;-70
2020/12/17 11:18:35;;;;;;;33.58;21.40;;;;;;;7.95;62.69;101146.13;5042974;28;20083;-70